createdAt,value
2023-02-22T00:05:53.531Z,9.43
2023-02-22T00:11:55.409Z,9.33
2023-02-22T00:17:57.591Z,9.36
2023-02-22T00:23:59.460Z,9.36
2023-02-22T00:30:01.362Z,9.36
2023-02-22T00:36:04.010Z,9.40
2023-02-22T00:42:06.622Z,9.60
2023-02-22T00:48:09.973Z,9.43
2023-02-22T00:54:11.959Z,9.30
2023-02-22T01:00:27.642Z,9.39
2023-02-22T01:06:29.579Z,9.54
2023-02-22T01:12:31.758Z,9.32
2023-02-22T01:18:37.329Z,9.15
2023-02-22T01:24:39.232Z,9.10
2023-02-22T01:30:41.362Z,9.14
2023-02-22T01:36:43.448Z,9.09
2023-02-22T01:42:47.021Z,9.10
2023-02-22T01:48:58.497Z,9.12
2023-02-22T01:55:00.914Z,9.10
2023-02-22T02:01:02.942Z,9.08
2023-02-22T02:07:08.596Z,9.09
2023-02-22T02:13:10.931Z,9.21
2023-02-22T02:19:49.815Z,9.33
2023-02-22T02:26:03.958Z,9.11
2023-02-22T02:32:39.254Z,9.20
2023-02-22T02:39:15.702Z,9.12
2023-02-22T02:45:36.304Z,9.10
2023-02-22T02:51:46.165Z,9.11
2023-02-22T02:57:48.034Z,9.09
2023-02-22T03:04:23.151Z,9.07
2023-02-22T03:11:04.132Z,9.20
2023-02-22T03:17:36.753Z,9.02
2023-02-22T03:23:49.931Z,9.09
2023-02-22T03:30:00.358Z,9.03
2023-02-22T03:36:28.971Z,9.05
2023-02-22T03:42:35.769Z,9.22
2023-02-22T03:48:48.975Z,9.10
2023-02-22T03:54:55.397Z,9.09
2023-02-22T04:00:57.492Z,9.10
2023-02-22T04:06:59.710Z,9.06
2023-02-22T04:13:01.637Z,9.02
2023-02-22T04:19:03.539Z,9.02
2023-02-22T04:25:06.168Z,9.03
2023-02-22T04:31:08.098Z,9.09
2023-02-22T04:37:10.458Z,9.02
2023-02-22T04:43:12.347Z,9.04
2023-02-22T04:49:14.306Z,9.05
2023-02-22T04:55:16.657Z,9.15
2023-02-22T05:01:19.313Z,9.07
2023-02-22T05:07:21.364Z,8.98
2023-02-22T05:13:23.251Z,8.99
2023-02-22T05:19:25.602Z,8.95
2023-02-22T05:25:28.509Z,8.84
2023-02-22T05:31:30.508Z,8.81
2023-02-22T05:37:32.481Z,8.77
2023-02-22T05:43:34.416Z,8.74
2023-02-22T05:49:36.351Z,8.65
2023-02-22T05:55:38.258Z,8.61
2023-02-22T06:01:40.156Z,8.59
2023-02-22T06:07:42.112Z,8.79
2023-02-22T06:13:51.136Z,8.80
2023-02-22T06:19:53.041Z,9.09
2023-02-22T06:25:55.000Z,9.00
2023-02-22T06:31:56.979Z,9.02
2023-02-22T06:37:58.903Z,9.40
2023-02-22T06:44:00.775Z,9.28
2023-02-22T06:50:02.751Z,9.33
2023-02-22T06:56:05.210Z,9.44
2023-02-22T07:02:07.109Z,9.16
2023-02-22T07:08:09.174Z,9.17
2023-02-22T07:14:11.094Z,9.29
2023-02-22T07:20:13.157Z,9.52
2023-02-22T07:26:15.366Z,9.53
2023-02-22T07:32:17.555Z,9.76
2023-02-22T07:38:21.025Z,10.16
2023-02-22T07:44:22.961Z,10.18
2023-02-22T07:50:27.793Z,10.47
2023-02-22T07:56:29.702Z,10.87
2023-02-22T08:02:31.672Z,11.15
2023-02-22T08:08:34.517Z,11.33
2023-02-22T08:14:36.434Z,11.50
2023-02-22T08:20:40.520Z,11.85
2023-02-22T08:26:47.243Z,11.97
2023-02-22T08:32:50.724Z,12.23
2023-02-22T08:38:52.675Z,12.30
2023-02-22T08:44:54.578Z,12.28
2023-02-22T08:50:56.665Z,11.84
2023-02-22T08:56:58.556Z,11.87
2023-02-22T09:03:02.323Z,11.91
2023-02-22T09:09:04.259Z,11.74
2023-02-22T09:15:06.389Z,12.03
2023-02-22T09:21:08.315Z,12.26
2023-02-22T09:27:12.154Z,12.50
2023-02-22T09:33:18.497Z,12.44
2023-02-22T09:39:21.697Z,12.48
2023-02-22T09:46:06.318Z,12.62
2023-02-22T09:52:27.144Z,12.52
2023-02-22T09:58:40.214Z,12.95
2023-02-22T10:04:53.090Z,13.43
2023-02-22T10:11:02.970Z,13.91
2023-02-22T10:17:13.044Z,13.77
2023-02-22T10:23:46.345Z,13.93
2023-02-22T10:30:42.772Z,14.46
2023-02-22T10:36:49.604Z,14.49
2023-02-22T10:42:51.569Z,15.19
2023-02-22T10:49:02.657Z,15.41
2023-02-22T10:55:15.731Z,15.50
2023-02-22T11:01:24.149Z,15.65
2023-02-22T11:07:36.126Z,16.20
2023-02-22T11:13:39.816Z,16.48
2023-02-22T11:19:49.093Z,16.63
2023-02-22T11:26:01.673Z,17.22
2023-02-22T11:32:22.345Z,17.23
2023-02-22T11:38:25.281Z,17.77
2023-02-22T11:44:29.824Z,18.21
2023-02-22T11:50:37.743Z,18.61
2023-02-22T11:56:50.440Z,18.55
2023-02-22T12:03:17.514Z,18.58
2023-02-22T12:09:48.222Z,18.15
2023-02-22T12:16:05.904Z,18.41
2023-02-22T12:22:24.200Z,18.24
2023-02-22T12:28:59.445Z,18.66
2023-02-22T12:35:34.884Z,18.69
2023-02-22T12:41:48.484Z,18.96
2023-02-22T12:48:21.688Z,19.93
2023-02-22T12:54:56.229Z,20.35
2023-02-22T13:01:12.113Z,20.66
2023-02-22T13:07:44.341Z,20.47
2023-02-22T13:14:39.585Z,20.18
2023-02-22T13:21:25.181Z,20.31
2023-02-22T13:27:42.776Z,20.23
2023-02-22T13:34:06.387Z,20.39
2023-02-22T13:40:29.050Z,20.47
2023-02-22T13:46:58.370Z,20.58
2023-02-22T13:53:04.922Z,21.35
2023-02-22T13:59:07.383Z,21.97
2023-02-22T14:05:35.640Z,22.10
2023-02-22T14:11:42.993Z,22.09
2023-02-22T14:17:48.517Z,22.37
2023-02-22T14:23:55.895Z,22.00
2023-02-22T14:30:00.560Z,21.64
2023-02-22T14:36:03.510Z,20.68
2023-02-22T14:42:21.263Z,19.79
2023-02-22T14:48:51.779Z,18.76
2023-02-22T14:55:15.689Z,18.93
2023-02-22T15:01:49.160Z,18.45
2023-02-22T15:08:02.498Z,18.17
2023-02-22T15:14:25.868Z,17.55
2023-02-22T15:20:29.465Z,17.23
2023-02-22T15:27:00.127Z,16.88
2023-02-22T15:33:24.729Z,16.59
2023-02-22T15:39:33.249Z,16.22
2023-02-22T15:45:38.276Z,16.04
2023-02-22T15:51:46.440Z,15.68
2023-02-22T15:57:48.927Z,15.19
2023-02-22T16:03:59.123Z,14.68
2023-02-22T16:10:08.084Z,14.12
2023-02-22T16:16:24.874Z,13.61
2023-02-22T16:22:35.262Z,13.46
2023-02-22T16:28:46.726Z,12.98
2023-02-22T16:34:50.341Z,12.64
2023-02-22T16:40:55.593Z,12.32
2023-02-22T16:47:00.951Z,12.12
2023-02-22T16:53:02.906Z,12.02
2023-02-22T16:59:13.936Z,11.78
2023-02-22T17:05:16.955Z,11.53
2023-02-22T17:11:19.436Z,11.43
2023-02-22T17:17:21.319Z,11.05
2023-02-22T17:23:24.709Z,10.89
2023-02-22T17:29:27.970Z,10.83
2023-02-22T17:35:37.167Z,10.76
2023-02-22T17:41:40.695Z,10.50
2023-02-22T17:47:44.032Z,10.47
2023-02-22T17:53:46.472Z,10.55
2023-02-22T17:59:48.424Z,10.35
2023-02-22T18:05:55.939Z,10.31
2023-02-22T18:11:58.094Z,10.41
2023-02-22T18:17:59.968Z,10.49
2023-02-22T18:24:02.005Z,10.49
2023-02-22T18:30:06.431Z,10.54
2023-02-22T18:36:11.371Z,10.56
2023-02-22T18:42:15.076Z,10.55
2023-02-22T18:48:16.995Z,10.61
2023-02-22T18:54:19.694Z,10.55
2023-02-22T19:00:24.973Z,10.44
2023-02-22T19:06:26.968Z,10.35
2023-02-22T19:12:31.399Z,10.33
2023-02-22T19:18:33.584Z,10.29
2023-02-22T19:24:36.377Z,10.41
2023-02-22T19:30:38.345Z,10.36
2023-02-22T19:36:46.032Z,10.41
2023-02-22T19:42:49.374Z,10.34
2023-02-22T19:48:53.254Z,10.17
2023-02-22T19:54:55.149Z,10.07
2023-02-22T20:00:57.042Z,9.79
2023-02-22T20:06:58.925Z,9.74
2023-02-22T20:13:01.720Z,9.61
2023-02-22T20:19:03.988Z,9.60
2023-02-22T20:25:06.436Z,9.51
2023-02-22T20:31:13.799Z,9.49
2023-02-22T20:37:15.944Z,9.30
2023-02-22T20:43:17.841Z,9.50
2023-02-22T20:49:21.311Z,9.42
2023-02-22T20:55:23.206Z,9.27
2023-02-22T21:01:25.912Z,9.35
2023-02-22T21:07:27.894Z,9.38
2023-02-22T21:13:29.810Z,9.45
2023-02-22T21:19:33.275Z,9.52
2023-02-22T21:25:35.369Z,9.52
2023-02-22T21:31:37.904Z,9.47
2023-02-22T21:37:39.894Z,9.67
2023-02-22T21:43:43.457Z,9.61
2023-02-22T21:49:45.514Z,9.52
2023-02-22T21:55:47.459Z,9.64
2023-02-22T22:01:57.907Z,9.44
2023-02-22T22:08:07.451Z,9.14
2023-02-22T22:14:10.636Z,9.14
2023-02-22T22:20:15.614Z,8.95
2023-02-22T22:26:24.426Z,8.97
2023-02-22T22:32:26.546Z,8.94
2023-02-22T22:38:29.709Z,8.75
2023-02-22T22:44:34.487Z,8.60
2023-02-22T22:50:37.650Z,8.59
2023-02-22T22:56:39.609Z,8.76
2023-02-22T23:02:41.498Z,8.56
2023-02-22T23:08:43.396Z,8.42
2023-02-22T23:14:46.010Z,8.51
2023-02-22T23:20:55.015Z,8.60
2023-02-22T23:27:00.101Z,8.41
2023-02-22T23:33:02.348Z,8.34
2023-02-22T23:39:06.633Z,8.18
2023-02-22T23:45:14.244Z,8.12
2023-02-22T23:51:20.334Z,7.99
2023-02-22T23:57:24.348Z,8.16
